sensor_id;sensor_type;location;lat;lon;timestamp;temperature;humidity
19906;DHT22;10115;50.906;4.438;2022-11-20T00:01:49;4.60;99.90
19906;DHT22;10115;50.906;4.438;2022-11-20T00:04:15;4.60;99.90
19906;DHT22;10115;50.906;4.438;2022-11-20T00:06:41;4.70;99.90
19906;DHT22;10115;50.906;4.438;2022-11-20T00:09:09;4.60;99.90
19906;DHT22;10115;50.906;4.438;2022-11-20T00:11:35;4.70;99.90
19906;DHT22;10115;50.906;4.438;2022-11-20T00:14:01;4.70;99.90
19906;DHT22;10115;50.906;4.438;2022-11-20T00:16:30;4.70;99.90
19906;DHT22;10115;50.906;4.438;2022-11-20T00:18:55;4.70;99.90
19906;DHT22;10115;50.906;4.438;2022-11-20T00:21:23;4.80;99.90
19906;DHT22;10115;50.906;4.438;2022-11-20T00:23:51;4.80;99.90
19906;DHT22;10115;50.906;4.438;2022-11-20T00:26:19;4.70;99.90
19906;DHT22;10115;50.906;4.438;2022-11-20T00:28:50;4.80;99.90
19906;DHT22;10115;50.906;4.438;2022-11-20T00:31:16;4.70;99.90
19906;DHT22;10115;50.906;4.438;2022-11-20T00:33:43;4.70;99.90
19906;DHT22;10115;50.906;4.438;2022-11-20T00:36:14;4.60;99.90
19906;DHT22;10115;50.906;4.438;2022-11-20T00:38:41;4.70;99.90
19906;DHT22;10115;50.906;4.438;2022-11-20T00:41:09;4.70;99.90
19906;DHT22;10115;50.906;4.438;2022-11-20T00:43:35;4.70;99.90
19906;DHT22;10115;50.906;4.438;2022-11-20T00:46:07;4.70;99.90
19906;DHT22;10115;50.906;4.438;2022-11-20T00:48:33;4.70;99.90
19906;DHT22;10115;50.906;4.438;2022-11-20T00:50:59;4.80;99.90
19906;DHT22;10115;50.906;4.438;2022-11-20T00:53:25;4.80;99.90
19906;DHT22;10115;50.906;4.438;2022-11-20T00:56:02;4.70;99.90
19906;DHT22;10115;50.906;4.438;2022-11-20T00:58:33;4.70;99.90
19906;DHT22;10115;50.906;4.438;2022-11-20T01:01:08;4.70;99.90
19906;DHT22;10115;50.906;4.438;2022-11-20T01:03:36;4.70;99.90
19906;DHT22;10115;50.906;4.438;2022-11-20T01:06:03;4.50;99.90
19906;DHT22;10115;50.906;4.438;2022-11-20T01:08:30;4.60;99.90
19906;DHT22;10115;50.906;4.438;2022-11-20T01:11:05;4.50;99.90
19906;DHT22;10115;50.906;4.438;2022-11-20T01:13:31;4.60;99.90
19906;DHT22;10115;50.906;4.438;2022-11-20T01:16:21;4.60;99.90
19906;DHT22;10115;50.906;4.438;2022-11-20T01:18:50;4.70;99.90
19906;DHT22;10115;50.906;4.438;2022-11-20T01:21:21;4.90;99.90
19906;DHT22;10115;50.906;4.438;2022-11-20T01:23:48;4.60;99.90
19906;DHT22;10115;50.906;4.438;2022-11-20T01:26:17;4.70;99.90
19906;DHT22;10115;50.906;4.438;2022-11-20T01:28:43;4.80;99.90
19906;DHT22;10115;50.906;4.438;2022-11-20T01:31:21;4.60;99.90
19906;DHT22;10115;50.906;4.438;2022-11-20T01:33:49;4.70;99.90
19906;DHT22;10115;50.906;4.438;2022-11-20T01:36:17;4.80;99.90
19906;DHT22;10115;50.906;4.438;2022-11-20T01:38:43;4.80;99.90
19906;DHT22;10115;50.906;4.438;2022-11-20T01:41:11;4.70;99.90
19906;DHT22;10115;50.906;4.438;2022-11-20T01:43:58;4.60;99.90
19906;DHT22;10115;50.906;4.438;2022-11-20T01:46:23;4.70;99.90
19906;DHT22;10115;50.906;4.438;2022-11-20T01:53:52;5.00;99.90
19906;DHT22;10115;50.906;4.438;2022-11-20T01:56:19;4.90;99.90
19906;DHT22;10115;50.906;4.438;2022-11-20T01:58:54;4.80;99.90
19906;DHT22;10115;50.906;4.438;2022-11-20T02:01:21;4.80;99.90
19906;DHT22;10115;50.906;4.438;2022-11-20T02:03:47;4.80;99.90
19906;DHT22;10115;50.906;4.438;2022-11-20T02:06:21;4.70;99.90
19906;DHT22;10115;50.906;4.438;2022-11-20T02:08:49;4.70;99.90
19906;DHT22;10115;50.906;4.438;2022-11-20T02:11:15;4.50;99.90
19906;DHT22;10115;50.906;4.438;2022-11-20T02:13:41;4.40;99.90
19906;DHT22;10115;50.906;4.438;2022-11-20T02:18:42;4.00;99.90
19906;DHT22;10115;50.906;4.438;2022-11-20T02:21:24;4.00;99.90
19906;DHT22;10115;50.906;4.438;2022-11-20T02:24:02;3.80;99.90
19906;DHT22;10115;50.906;4.438;2022-11-20T02:26:31;3.60;99.90
19906;DHT22;10115;50.906;4.438;2022-11-20T02:28:58;3.50;99.90
19906;DHT22;10115;50.906;4.438;2022-11-20T02:31:24;3.50;99.90
19906;DHT22;10115;50.906;4.438;2022-11-20T02:33:59;3.50;99.90
19906;DHT22;10115;50.906;4.438;2022-11-20T02:36:27;3.40;99.90
19906;DHT22;10115;50.906;4.438;2022-11-20T02:38:53;3.40;99.90
19906;DHT22;10115;50.906;4.438;2022-11-20T02:41:19;3.40;99.90
19906;DHT22;10115;50.906;4.438;2022-11-20T02:43:45;3.40;99.90
19906;DHT22;10115;50.906;4.438;2022-11-20T02:46:11;3.40;99.90
19906;DHT22;10115;50.906;4.438;2022-11-20T02:48:37;3.40;99.90
19906;DHT22;10115;50.906;4.438;2022-11-20T02:51:03;3.50;99.90
19906;DHT22;10115;50.906;4.438;2022-11-20T02:53:28;3.50;99.90
19906;DHT22;10115;50.906;4.438;2022-11-20T02:55:54;3.50;99.90
19906;DHT22;10115;50.906;4.438;2022-11-20T02:58:20;3.60;99.90
19906;DHT22;10115;50.906;4.438;2022-11-20T03:00:45;3.80;99.90
19906;DHT22;10115;50.906;4.438;2022-11-20T03:03:11;3.60;99.90
19906;DHT22;10115;50.906;4.438;2022-11-20T03:05:37;3.60;99.90
19906;DHT22;10115;50.906;4.438;2022-11-20T03:08:02;3.60;99.90
19906;DHT22;10115;50.906;4.438;2022-11-20T03:10:28;3.50;99.90
19906;DHT22;10115;50.906;4.438;2022-11-20T03:12:54;3.50;99.90
19906;DHT22;10115;50.906;4.438;2022-11-20T03:15:23;3.50;99.90
19906;DHT22;10115;50.906;4.438;2022-11-20T03:17:53;3.50;99.90
19906;DHT22;10115;50.906;4.438;2022-11-20T03:20:19;3.30;99.90
19906;DHT22;10115;50.906;4.438;2022-11-20T03:22:45;3.30;99.90
19906;DHT22;10115;50.906;4.438;2022-11-20T03:25:11;3.30;99.90
19906;DHT22;10115;50.906;4.438;2022-11-20T03:27:36;3.30;99.90
19906;DHT22;10115;50.906;4.438;2022-11-20T03:30:03;3.30;99.90
19906;DHT22;10115;50.906;4.438;2022-11-20T03:32:29;3.30;99.90
19906;DHT22;10115;50.906;4.438;2022-11-20T03:34:55;3.40;99.90
19906;DHT22;10115;50.906;4.438;2022-11-20T03:37:20;3.30;99.90
19906;DHT22;10115;50.906;4.438;2022-11-20T03:39:46;3.40;99.90
19906;DHT22;10115;50.906;4.438;2022-11-20T03:42:12;3.30;99.90
19906;DHT22;10115;50.906;4.438;2022-11-20T03:44:55;3.30;99.90
19906;DHT22;10115;50.906;4.438;2022-11-20T03:47:21;3.40;99.90
19906;DHT22;10115;50.906;4.438;2022-11-20T03:49:47;3.30;99.90
19906;DHT22;10115;50.906;4.438;2022-11-20T03:52:12;3.40;99.90
19906;DHT22;10115;50.906;4.438;2022-11-20T03:54:38;3.50;99.90
19906;DHT22;10115;50.906;4.438;2022-11-20T03:57:04;3.50;99.90
19906;DHT22;10115;50.906;4.438;2022-11-20T03:59:29;3.50;99.90
19906;DHT22;10115;50.906;4.438;2022-11-20T04:01:55;3.70;99.90
19906;DHT22;10115;50.906;4.438;2022-11-20T04:04:21;3.80;99.90
19906;DHT22;10115;50.906;4.438;2022-11-20T04:06:46;3.90;99.90
19906;DHT22;10115;50.906;4.438;2022-11-20T04:09:12;4.00;99.90
19906;DHT22;10115;50.906;4.438;2022-11-20T04:11:40;4.30;99.90
19906;DHT22;10115;50.906;4.438;2022-11-20T04:14:11;4.00;99.90
19906;DHT22;10115;50.906;4.438;2022-11-20T04:16:38;3.90;99.90
19906;DHT22;10115;50.906;4.438;2022-11-20T04:19:05;3.90;99.90
19906;DHT22;10115;50.906;4.438;2022-11-20T04:21:32;3.90;99.90
19906;DHT22;10115;50.906;4.438;2022-11-20T04:23:58;3.90;99.90
19906;DHT22;10115;50.906;4.438;2022-11-20T04:26:25;4.00;99.90
19906;DHT22;10115;50.906;4.438;2022-11-20T04:28:51;4.10;99.90
19906;DHT22;10115;50.906;4.438;2022-11-20T04:31:22;4.20;99.90
19906;DHT22;10115;50.906;4.438;2022-11-20T04:33:48;4.20;99.90
19906;DHT22;10115;50.906;4.438;2022-11-20T04:36:19;4.20;99.90
19906;DHT22;10115;50.906;4.438;2022-11-20T04:38:45;4.30;99.90
19906;DHT22;10115;50.906;4.438;2022-11-20T04:41:21;4.30;99.90
19906;DHT22;10115;50.906;4.438;2022-11-20T04:43:51;4.40;99.90
19906;DHT22;10115;50.906;4.438;2022-11-20T04:46:19;4.50;99.90
19906;DHT22;10115;50.906;4.438;2022-11-20T04:48:45;4.50;99.90
19906;DHT22;10115;50.906;4.438;2022-11-20T04:51:11;4.60;99.90
19906;DHT22;10115;50.906;4.438;2022-11-20T04:53:37;4.50;99.90
19906;DHT22;10115;50.906;4.438;2022-11-20T04:56:05;4.70;99.90
19906;DHT22;10115;50.906;4.438;2022-11-20T04:58:32;4.80;99.90
19906;DHT22;10115;50.906;4.438;2022-11-20T05:03:28;5.00;99.90
19906;DHT22;10115;50.906;4.438;2022-11-20T05:05:53;5.10;99.90
19906;DHT22;10115;50.906;4.438;2022-11-20T05:08:19;5.10;99.90
19906;DHT22;10115;50.906;4.438;2022-11-20T05:10:45;5.10;99.90
19906;DHT22;10115;50.906;4.438;2022-11-20T05:13:10;5.10;99.90
19906;DHT22;10115;50.906;4.438;2022-11-20T05:15:36;5.20;99.90
19906;DHT22;10115;50.906;4.438;2022-11-20T05:18:01;5.00;99.90
19906;DHT22;10115;50.906;4.438;2022-11-20T05:20:27;4.90;99.90
19906;DHT22;10115;50.906;4.438;2022-11-20T05:22:56;5.20;99.90
19906;DHT22;10115;50.906;4.438;2022-11-20T05:25:22;5.10;99.90
19906;DHT22;10115;50.906;4.438;2022-11-20T05:27:48;5.20;99.90
19906;DHT22;10115;50.906;4.438;2022-11-20T05:30:14;5.40;99.90
19906;DHT22;10115;50.906;4.438;2022-11-20T05:32:40;5.30;99.90
19906;DHT22;10115;50.906;4.438;2022-11-20T05:35:06;5.20;99.90
19906;DHT22;10115;50.906;4.438;2022-11-20T05:37:31;5.20;99.90
19906;DHT22;10115;50.906;4.438;2022-11-20T05:39:57;5.40;99.90
19906;DHT22;10115;50.906;4.438;2022-11-20T05:42:23;5.30;99.90
19906;DHT22;10115;50.906;4.438;2022-11-20T05:45:02;5.40;99.90
19906;DHT22;10115;50.906;4.438;2022-11-20T05:47:32;5.40;99.90
19906;DHT22;10115;50.906;4.438;2022-11-20T05:49:58;5.20;99.90
19906;DHT22;10115;50.906;4.438;2022-11-20T05:52:23;5.20;99.90
19906;DHT22;10115;50.906;4.438;2022-11-20T05:54:49;5.20;99.90
19906;DHT22;10115;50.906;4.438;2022-11-20T05:57:15;5.00;99.90
19906;DHT22;10115;50.906;4.438;2022-11-20T05:59:41;5.00;99.90
19906;DHT22;10115;50.906;4.438;2022-11-20T06:02:07;4.90;99.90
19906;DHT22;10115;50.906;4.438;2022-11-20T06:04:33;5.00;99.90
19906;DHT22;10115;50.906;4.438;2022-11-20T06:06:58;5.10;99.90
19906;DHT22;10115;50.906;4.438;2022-11-20T06:09:24;5.10;99.90
19906;DHT22;10115;50.906;4.438;2022-11-20T06:11:50;5.20;99.90
19906;DHT22;10115;50.906;4.438;2022-11-20T06:14:15;5.40;99.90
19906;DHT22;10115;50.906;4.438;2022-11-20T06:16:41;5.50;99.90
19906;DHT22;10115;50.906;4.438;2022-11-20T06:19:06;5.30;99.90
19906;DHT22;10115;50.906;4.438;2022-11-20T06:21:32;5.30;99.90
19906;DHT22;10115;50.906;4.438;2022-11-20T06:23:58;5.10;99.90
19906;DHT22;10115;50.906;4.438;2022-11-20T06:26:26;5.20;99.90
19906;DHT22;10115;50.906;4.438;2022-11-20T06:28:53;5.30;99.90
19906;DHT22;10115;50.906;4.438;2022-11-20T06:31:21;5.30;99.90
19906;DHT22;10115;50.906;4.438;2022-11-20T06:33:48;5.40;99.90
19906;DHT22;10115;50.906;4.438;2022-11-20T06:36:15;5.30;99.90
19906;DHT22;10115;50.906;4.438;2022-11-20T06:38:42;5.40;99.90
19906;DHT22;10115;50.906;4.438;2022-11-20T06:41:14;5.30;99.90
19906;DHT22;10115;50.906;4.438;2022-11-20T06:43:40;5.30;99.90
19906;DHT22;10115;50.906;4.438;2022-11-20T06:46:06;5.10;99.90
19906;DHT22;10115;50.906;4.438;2022-11-20T06:48:32;5.20;99.90
19906;DHT22;10115;50.906;4.438;2022-11-20T06:50:58;5.30;99.90
19906;DHT22;10115;50.906;4.438;2022-11-20T06:53:24;5.40;99.90
19906;DHT22;10115;50.906;4.438;2022-11-20T06:55:51;5.60;99.90
19906;DHT22;10115;50.906;4.438;2022-11-20T06:58:17;5.60;99.90
19906;DHT22;10115;50.906;4.438;2022-11-20T07:00:43;5.60;99.90
19906;DHT22;10115;50.906;4.438;2022-11-20T07:03:11;5.60;99.90
19906;DHT22;10115;50.906;4.438;2022-11-20T07:05:37;5.60;99.90
19906;DHT22;10115;50.906;4.438;2022-11-20T07:08:04;5.50;99.90
19906;DHT22;10115;50.906;4.438;2022-11-20T07:10:30;5.40;99.90
19906;DHT22;10115;50.906;4.438;2022-11-20T07:12:56;5.50;99.90
19906;DHT22;10115;50.906;4.438;2022-11-20T07:15:23;5.60;99.90
19906;DHT22;10115;50.906;4.438;2022-11-20T07:17:49;5.40;99.90
19906;DHT22;10115;50.906;4.438;2022-11-20T07:20:15;5.40;99.90
19906;DHT22;10115;50.906;4.438;2022-11-20T07:22:42;5.30;99.90
19906;DHT22;10115;50.906;4.438;2022-11-20T07:25:09;5.40;99.90
19906;DHT22;10115;50.906;4.438;2022-11-20T07:27:35;5.50;99.90
19906;DHT22;10115;50.906;4.438;2022-11-20T07:30:01;5.50;99.90
19906;DHT22;10115;50.906;4.438;2022-11-20T07:32:27;5.70;99.90
19906;DHT22;10115;50.906;4.438;2022-11-20T07:34:52;5.90;99.90
19906;DHT22;10115;50.906;4.438;2022-11-20T07:37:18;5.80;99.90
19906;DHT22;10115;50.906;4.438;2022-11-20T07:39:44;5.90;99.90
19906;DHT22;10115;50.906;4.438;2022-11-20T07:42:10;5.90;99.90
19906;DHT22;10115;50.906;4.438;2022-11-20T07:44:37;5.90;99.90
19906;DHT22;10115;50.906;4.438;2022-11-20T07:47:03;6.00;99.90
19906;DHT22;10115;50.906;4.438;2022-11-20T07:49:29;6.20;99.90
19906;DHT22;10115;50.906;4.438;2022-11-20T07:51:55;6.10;99.90
19906;DHT22;10115;50.906;4.438;2022-11-20T07:54:21;6.30;99.90
19906;DHT22;10115;50.906;4.438;2022-11-20T07:56:50;6.20;99.90
19906;DHT22;10115;50.906;4.438;2022-11-20T07:59:16;5.90;99.90
19906;DHT22;10115;50.906;4.438;2022-11-20T08:01:42;5.80;99.90
19906;DHT22;10115;50.906;4.438;2022-11-20T08:04:09;5.80;99.90
19906;DHT22;10115;50.906;4.438;2022-11-20T08:06:35;6.00;99.90
19906;DHT22;10115;50.906;4.438;2022-11-20T08:09:01;5.90;99.90
19906;DHT22;10115;50.906;4.438;2022-11-20T08:11:27;5.90;99.90
19906;DHT22;10115;50.906;4.438;2022-11-20T08:14:11;6.00;99.90
19906;DHT22;10115;50.906;4.438;2022-11-20T08:16:47;6.20;99.90
19906;DHT22;10115;50.906;4.438;2022-11-20T08:19:14;6.10;99.90
19906;DHT22;10115;50.906;4.438;2022-11-20T08:21:40;6.20;99.90
19906;DHT22;10115;50.906;4.438;2022-11-20T08:24:07;6.30;99.90
19906;DHT22;10115;50.906;4.438;2022-11-20T08:26:33;6.30;99.90
19906;DHT22;10115;50.906;4.438;2022-11-20T08:28:59;6.40;99.90
19906;DHT22;10115;50.906;4.438;2022-11-20T08:31:26;6.50;99.90
19906;DHT22;10115;50.906;4.438;2022-11-20T08:33:52;6.30;99.90
19906;DHT22;10115;50.906;4.438;2022-11-20T08:36:18;6.30;99.90
19906;DHT22;10115;50.906;4.438;2022-11-20T08:38:52;6.40;99.90
19906;DHT22;10115;50.906;4.438;2022-11-20T08:41:19;6.60;99.90
19906;DHT22;10115;50.906;4.438;2022-11-20T08:43:58;6.40;99.90
19906;DHT22;10115;50.906;4.438;2022-11-20T08:46:26;6.30;99.90
19906;DHT22;10115;50.906;4.438;2022-11-20T08:48:52;6.30;99.90
19906;DHT22;10115;50.906;4.438;2022-11-20T08:51:19;6.30;99.90
19906;DHT22;10115;50.906;4.438;2022-11-20T08:53:45;6.30;99.90
19906;DHT22;10115;50.906;4.438;2022-11-20T08:56:11;6.50;99.90
19906;DHT22;10115;50.906;4.438;2022-11-20T08:58:38;6.60;99.90
19906;DHT22;10115;50.906;4.438;2022-11-20T09:01:04;6.80;99.90
19906;DHT22;10115;50.906;4.438;2022-11-20T09:03:30;6.90;99.90
19906;DHT22;10115;50.906;4.438;2022-11-20T09:06:14;6.90;99.90
19906;DHT22;10115;50.906;4.438;2022-11-20T09:08:40;6.90;99.90
19906;DHT22;10115;50.906;4.438;2022-11-20T09:11:06;6.90;99.90
19906;DHT22;10115;50.906;4.438;2022-11-20T09:13:33;6.90;99.90
19906;DHT22;10115;50.906;4.438;2022-11-20T09:16:07;6.80;99.90
19906;DHT22;10115;50.906;4.438;2022-11-20T09:18:34;7.10;99.90
19906;DHT22;10115;50.906;4.438;2022-11-20T09:21:04;7.30;99.90
19906;DHT22;10115;50.906;4.438;2022-11-20T09:23:35;7.30;99.90
19906;DHT22;10115;50.906;4.438;2022-11-20T09:26:05;7.30;99.90
19906;DHT22;10115;50.906;4.438;2022-11-20T09:28:31;7.40;99.90
19906;DHT22;10115;50.906;4.438;2022-11-20T09:30:58;7.30;99.90
19906;DHT22;10115;50.906;4.438;2022-11-20T09:33:24;7.20;99.90
19906;DHT22;10115;50.906;4.438;2022-11-20T09:35:49;7.20;99.90
19906;DHT22;10115;50.906;4.438;2022-11-20T09:38:15;7.30;99.90
19906;DHT22;10115;50.906;4.438;2022-11-20T09:40:47;7.30;99.90
19906;DHT22;10115;50.906;4.438;2022-11-20T09:54:29;8.00;99.90
19906;DHT22;10115;50.906;4.438;2022-11-20T09:57:05;8.00;99.90
19906;DHT22;10115;50.906;4.438;2022-11-20T09:59:46;7.90;99.90
19906;DHT22;10115;50.906;4.438;2022-11-20T10:02:19;7.90;99.90
19906;DHT22;10115;50.906;4.438;2022-11-20T10:05:03;8.00;99.90
19906;DHT22;10115;50.906;4.438;2022-11-20T10:10:26;8.20;99.90
19906;DHT22;10115;50.906;4.438;2022-11-20T10:13:03;8.40;99.90
19906;DHT22;10115;50.906;4.438;2022-11-20T10:18:42;8.20;99.90
19906;DHT22;10115;50.906;4.438;2022-11-20T10:22:09;8.40;99.90
19906;DHT22;10115;50.906;4.438;2022-11-20T10:26:55;8.30;99.90
19906;DHT22;10115;50.906;4.438;2022-11-20T10:29:32;8.50;99.90
19906;DHT22;10115;50.906;4.438;2022-11-20T10:34:59;8.40;99.90
19906;DHT22;10115;50.906;4.438;2022-11-20T10:37:27;8.50;99.90
19906;DHT22;10115;50.906;4.438;2022-11-20T10:42:56;8.90;99.90
19906;DHT22;10115;50.906;4.438;2022-11-20T10:47:48;9.10;99.90
19906;DHT22;10115;50.906;4.438;2022-11-20T10:50:21;9.10;99.90
19906;DHT22;10115;50.906;4.438;2022-11-20T10:52:59;9.30;99.90
19906;DHT22;10115;50.906;4.438;2022-11-20T10:55:42;9.30;99.90
19906;DHT22;10115;50.906;4.438;2022-11-20T10:58:14;9.30;99.90
19906;DHT22;10115;50.906;4.438;2022-11-20T11:00:40;9.10;99.90
19906;DHT22;10115;50.906;4.438;2022-11-20T11:03:27;9.00;99.90
19906;DHT22;10115;50.906;4.438;2022-11-20T11:06:07;9.00;99.90
19906;DHT22;10115;50.906;4.438;2022-11-20T11:08:37;9.00;99.90
19906;DHT22;10115;50.906;4.438;2022-11-20T11:11:31;9.10;99.90
19906;DHT22;10115;50.906;4.438;2022-11-20T11:14:08;9.00;99.90
19906;DHT22;10115;50.906;4.438;2022-11-20T11:16:34;9.00;99.90
19906;DHT22;10115;50.906;4.438;2022-11-20T11:19:27;9.10;99.90
19906;DHT22;10115;50.906;4.438;2022-11-20T11:21:56;9.20;99.90
19906;DHT22;10115;50.906;4.438;2022-11-20T11:24:27;9.10;99.90
19906;DHT22;10115;50.906;4.438;2022-11-20T11:27:10;9.10;99.90
19906;DHT22;10115;50.906;4.438;2022-11-20T11:29:36;9.00;99.90
19906;DHT22;10115;50.906;4.438;2022-11-20T11:32:13;9.10;99.90
19906;DHT22;10115;50.906;4.438;2022-11-20T11:34:40;9.10;99.90
19906;DHT22;10115;50.906;4.438;2022-11-20T11:37:14;9.20;99.90
19906;DHT22;10115;50.906;4.438;2022-11-20T11:39:42;9.20;99.90
19906;DHT22;10115;50.906;4.438;2022-11-20T11:42:13;9.30;99.90
19906;DHT22;10115;50.906;4.438;2022-11-20T11:44:47;9.20;99.90
19906;DHT22;10115;50.906;4.438;2022-11-20T11:47:34;9.20;99.90
19906;DHT22;10115;50.906;4.438;2022-11-20T11:58:02;9.10;99.90
19906;DHT22;10115;50.906;4.438;2022-11-20T12:00:32;9.00;99.90
19906;DHT22;10115;50.906;4.438;2022-11-20T12:03:19;9.00;99.90
19906;DHT22;10115;50.906;4.438;2022-11-20T12:05:57;9.00;99.90
19906;DHT22;10115;50.906;4.438;2022-11-20T12:10:58;8.80;99.90
19906;DHT22;10115;50.906;4.438;2022-11-20T12:16:01;8.80;99.90
19906;DHT22;10115;50.906;4.438;2022-11-20T12:18:28;8.60;99.90
19906;DHT22;10115;50.906;4.438;2022-11-20T12:20:58;8.60;99.90
19906;DHT22;10115;50.906;4.438;2022-11-20T12:32:25;8.20;99.90
19906;DHT22;10115;50.906;4.438;2022-11-20T12:43:57;8.20;99.90
19906;DHT22;10115;50.906;4.438;2022-11-20T12:46:51;8.20;99.90
19906;DHT22;10115;50.906;4.438;2022-11-20T12:49:47;8.20;99.90
19906;DHT22;10115;50.906;4.438;2022-11-20T12:52:25;8.30;99.90
19906;DHT22;10115;50.906;4.438;2022-11-20T12:57:58;8.40;99.90
19906;DHT22;10115;50.906;4.438;2022-11-20T13:00:25;8.40;99.90
19906;DHT22;10115;50.906;4.438;2022-11-20T13:03:04;8.40;99.90
19906;DHT22;10115;50.906;4.438;2022-11-20T13:08:25;8.50;99.90
19906;DHT22;10115;50.906;4.438;2022-11-20T13:16:05;8.70;99.90
19906;DHT22;10115;50.906;4.438;2022-11-20T13:18:39;8.80;99.90
19906;DHT22;10115;50.906;4.438;2022-11-20T13:21:19;8.70;99.90
19906;DHT22;10115;50.906;4.438;2022-11-20T13:23:45;8.70;99.90
19906;DHT22;10115;50.906;4.438;2022-11-20T13:26:20;8.70;99.90
19906;DHT22;10115;50.906;4.438;2022-11-20T13:28:59;8.70;99.90
19906;DHT22;10115;50.906;4.438;2022-11-20T13:31:34;8.60;99.90
19906;DHT22;10115;50.906;4.438;2022-11-20T13:34:03;8.40;99.90
19906;DHT22;10115;50.906;4.438;2022-11-20T13:36:30;8.30;99.90
19906;DHT22;10115;50.906;4.438;2022-11-20T13:38:57;8.30;99.90
19906;DHT22;10115;50.906;4.438;2022-11-20T13:44:22;8.30;99.90
19906;DHT22;10115;50.906;4.438;2022-11-20T13:46:49;8.20;99.90
19906;DHT22;10115;50.906;4.438;2022-11-20T13:49:42;8.30;99.90
19906;DHT22;10115;50.906;4.438;2022-11-20T14:00:28;8.20;99.90
19906;DHT22;10115;50.906;4.438;2022-11-20T14:05:56;8.10;99.90
19906;DHT22;10115;50.906;4.438;2022-11-20T14:08:42;8.10;99.90
19906;DHT22;10115;50.906;4.438;2022-11-20T14:11:23;8.10;99.90
19906;DHT22;10115;50.906;4.438;2022-11-20T14:13:57;8.10;99.90
19906;DHT22;10115;50.906;4.438;2022-11-20T14:16:25;8.10;99.90
19906;DHT22;10115;50.906;4.438;2022-11-20T14:18:51;8.20;99.90
19906;DHT22;10115;50.906;4.438;2022-11-20T14:21:28;8.10;99.90
19906;DHT22;10115;50.906;4.438;2022-11-20T14:24:11;8.00;99.90
19906;DHT22;10115;50.906;4.438;2022-11-20T14:26:41;8.00;99.90
19906;DHT22;10115;50.906;4.438;2022-11-20T14:29:14;8.00;99.90
19906;DHT22;10115;50.906;4.438;2022-11-20T14:31:40;8.00;99.90
19906;DHT22;10115;50.906;4.438;2022-11-20T14:34:18;8.00;99.90
19906;DHT22;10115;50.906;4.438;2022-11-20T14:36:45;8.00;99.90
19906;DHT22;10115;50.906;4.438;2022-11-20T14:39:12;8.00;99.90
19906;DHT22;10115;50.906;4.438;2022-11-20T14:41:53;8.10;99.90
19906;DHT22;10115;50.906;4.438;2022-11-20T14:44:26;8.10;99.90
19906;DHT22;10115;50.906;4.438;2022-11-20T14:46:54;8.10;99.90
19906;DHT22;10115;50.906;4.438;2022-11-20T14:49:20;8.10;99.90
19906;DHT22;10115;50.906;4.438;2022-11-20T14:51:46;8.10;99.90
19906;DHT22;10115;50.906;4.438;2022-11-20T14:54:17;8.10;99.90
19906;DHT22;10115;50.906;4.438;2022-11-20T14:56:54;8.00;99.90
19906;DHT22;10115;50.906;4.438;2022-11-20T14:59:28;8.00;99.90
19906;DHT22;10115;50.906;4.438;2022-11-20T15:02:28;8.00;99.90
19906;DHT22;10115;50.906;4.438;2022-11-20T15:04:48;8.00;99.90
19906;DHT22;10115;50.906;4.438;2022-11-20T15:07:35;8.00;99.90
19906;DHT22;10115;50.906;4.438;2022-11-20T15:10:05;8.10;99.90
19906;DHT22;10115;50.906;4.438;2022-11-20T15:12:33;8.10;99.90
19906;DHT22;10115;50.906;4.438;2022-11-20T15:15:00;8.10;99.90
19906;DHT22;10115;50.906;4.438;2022-11-20T15:17:26;8.10;99.90
19906;DHT22;10115;50.906;4.438;2022-11-20T15:19:53;8.10;99.90
19906;DHT22;10115;50.906;4.438;2022-11-20T15:22:19;8.10;99.90
19906;DHT22;10115;50.906;4.438;2022-11-20T15:24:45;8.20;99.90
19906;DHT22;10115;50.906;4.438;2022-11-20T15:27:11;8.20;99.90
19906;DHT22;10115;50.906;4.438;2022-11-20T15:29:36;8.30;99.90
19906;DHT22;10115;50.906;4.438;2022-11-20T15:32:02;8.30;99.90
19906;DHT22;10115;50.906;4.438;2022-11-20T15:34:28;8.30;99.90
19906;DHT22;10115;50.906;4.438;2022-11-20T15:36:54;8.40;99.90
19906;DHT22;10115;50.906;4.438;2022-11-20T15:39:20;8.40;99.90
19906;DHT22;10115;50.906;4.438;2022-11-20T15:41:46;8.40;99.90
19906;DHT22;10115;50.906;4.438;2022-11-20T15:44:12;8.40;99.90
19906;DHT22;10115;50.906;4.438;2022-11-20T15:46:41;8.40;99.90
19906;DHT22;10115;50.906;4.438;2022-11-20T15:49:13;8.50;99.90
19906;DHT22;10115;50.906;4.438;2022-11-20T15:51:49;8.50;99.90
19906;DHT22;10115;50.906;4.438;2022-11-20T15:54:20;8.50;99.90
19906;DHT22;10115;50.906;4.438;2022-11-20T15:56:49;8.50;99.90
19906;DHT22;10115;50.906;4.438;2022-11-20T15:59:17;8.50;99.90
19906;DHT22;10115;50.906;4.438;2022-11-20T16:01:43;8.50;99.90
19906;DHT22;10115;50.906;4.438;2022-11-20T16:04:14;8.60;99.90
19906;DHT22;10115;50.906;4.438;2022-11-20T16:06:40;8.60;99.90
19906;DHT22;10115;50.906;4.438;2022-11-20T16:09:06;8.60;99.90
19906;DHT22;10115;50.906;4.438;2022-11-20T16:11:32;8.60;99.90
19906;DHT22;10115;50.906;4.438;2022-11-20T16:13:59;8.70;99.90
19906;DHT22;10115;50.906;4.438;2022-11-20T16:16:43;8.70;99.90
19906;DHT22;10115;50.906;4.438;2022-11-20T16:19:13;8.70;99.90
19906;DHT22;10115;50.906;4.438;2022-11-20T16:21:40;8.70;99.90
19906;DHT22;10115;50.906;4.438;2022-11-20T16:24:09;8.70;99.90
19906;DHT22;10115;50.906;4.438;2022-11-20T16:26:36;8.70;99.90
19906;DHT22;10115;50.906;4.438;2022-11-20T16:29:05;8.70;99.90
19906;DHT22;10115;50.906;4.438;2022-11-20T16:31:31;8.80;99.90
19906;DHT22;10115;50.906;4.438;2022-11-20T16:33:59;8.70;99.90
19906;DHT22;10115;50.906;4.438;2022-11-20T16:36:27;8.90;99.90
19906;DHT22;10115;50.906;4.438;2022-11-20T16:38:58;8.70;99.90
19906;DHT22;10115;50.906;4.438;2022-11-20T16:41:26;8.70;99.90
19906;DHT22;10115;50.906;4.438;2022-11-20T16:43:57;8.70;99.90
19906;DHT22;10115;50.906;4.438;2022-11-20T16:46:24;8.80;99.90
19906;DHT22;10115;50.906;4.438;2022-11-20T16:49:02;8.80;99.90
19906;DHT22;10115;50.906;4.438;2022-11-20T16:51:29;8.70;99.90
19906;DHT22;10115;50.906;4.438;2022-11-20T16:53:55;8.70;99.90
19906;DHT22;10115;50.906;4.438;2022-11-20T16:56:23;8.70;99.90
19906;DHT22;10115;50.906;4.438;2022-11-20T16:58:49;8.70;99.90
19906;DHT22;10115;50.906;4.438;2022-11-20T17:01:18;8.70;99.90
19906;DHT22;10115;50.906;4.438;2022-11-20T17:03:46;8.70;99.90
19906;DHT22;10115;50.906;4.438;2022-11-20T17:06:20;8.70;99.90
19906;DHT22;10115;50.906;4.438;2022-11-20T17:08:47;8.60;99.90
19906;DHT22;10115;50.906;4.438;2022-11-20T17:11:15;8.70;99.90
19906;DHT22;10115;50.906;4.438;2022-11-20T17:13:41;8.60;99.90
19906;DHT22;10115;50.906;4.438;2022-11-20T17:16:11;8.60;99.90
19906;DHT22;10115;50.906;4.438;2022-11-20T17:18:36;8.50;99.90
19906;DHT22;10115;50.906;4.438;2022-11-20T17:21:03;8.50;99.90
19906;DHT22;10115;50.906;4.438;2022-11-20T17:23:34;8.40;99.90
19906;DHT22;10115;50.906;4.438;2022-11-20T17:26:21;8.30;99.90
19906;DHT22;10115;50.906;4.438;2022-11-20T17:28:59;8.20;99.90
19906;DHT22;10115;50.906;4.438;2022-11-20T17:31:26;8.00;99.90
19906;DHT22;10115;50.906;4.438;2022-11-20T17:33:52;7.70;99.90